sensor_id;sensor_type;location;lat;lon;timestamp;P1;durP1;ratioP1;P2;durP2;ratioP2
1010;SDS011;494;48.744;10.106;2022-12-29T00:00:17;11.30;;;4.80;;
1010;SDS011;494;48.744;10.106;2022-12-29T00:02:46;14.27;;;4.80;;
1010;SDS011;494;48.744;10.106;2022-12-29T00:05:15;15.03;;;5.53;;
1010;SDS011;494;48.744;10.106;2022-12-29T00:07:45;13.77;;;4.93;;
1010;SDS011;494;48.744;10.106;2022-12-29T00:10:13;11.90;;;4.87;;
1010;SDS011;494;48.744;10.106;2022-12-29T00:12:42;13.87;;;5.10;;
1010;SDS011;494;48.744;10.106;2022-12-29T00:15:28;14.20;;;5.50;;
1010;SDS011;494;48.744;10.106;2022-12-29T00:18:05;14.47;;;5.70;;
1010;SDS011;494;48.744;10.106;2022-12-29T00:20:35;14.57;;;5.80;;
1010;SDS011;494;48.744;10.106;2022-12-29T00:23:24;19.27;;;7.70;;
1010;SDS011;494;48.744;10.106;2022-12-29T00:26:12;21.57;;;8.80;;
1010;SDS011;494;48.744;10.106;2022-12-29T00:28:59;18.13;;;7.23;;
1010;SDS011;494;48.744;10.106;2022-12-29T00:31:45;19.77;;;8.10;;
1010;SDS011;494;48.744;10.106;2022-12-29T00:34:43;17.77;;;8.80;;
1010;SDS011;494;48.744;10.106;2022-12-29T00:37:29;20.00;;;8.40;;
1010;SDS011;494;48.744;10.106;2022-12-29T00:40:13;22.83;;;9.40;;
1010;SDS011;494;48.744;10.106;2022-12-29T00:42:59;14.47;;;6.23;;
1010;SDS011;494;48.744;10.106;2022-12-29T00:45:45;12.67;;;5.27;;
1010;SDS011;494;48.744;10.106;2022-12-29T00:48:14;12.47;;;4.70;;
1010;SDS011;494;48.744;10.106;2022-12-29T00:51:02;12.40;;;4.93;;
1010;SDS011;494;48.744;10.106;2022-12-29T00:53:30;15.23;;;5.50;;
1010;SDS011;494;48.744;10.106;2022-12-29T00:56:00;12.97;;;4.90;;
1010;SDS011;494;48.744;10.106;2022-12-29T00:58:29;10.83;;;4.20;;
1010;SDS011;494;48.744;10.106;2022-12-29T01:01:02;8.80;;;3.47;;
1010;SDS011;494;48.744;10.106;2022-12-29T01:03:32;11.23;;;4.30;;
1010;SDS011;494;48.744;10.106;2022-12-29T01:06:02;9.53;;;3.27;;
1010;SDS011;494;48.744;10.106;2022-12-29T01:08:33;9.20;;;3.77;;
1010;SDS011;494;48.744;10.106;2022-12-29T01:11:05;9.27;;;3.33;;
1010;SDS011;494;48.744;10.106;2022-12-29T01:13:34;10.47;;;3.77;;
1010;SDS011;494;48.744;10.106;2022-12-29T01:16:05;9.20;;;3.13;;
1010;SDS011;494;48.744;10.106;2022-12-29T01:18:34;9.37;;;3.27;;
1010;SDS011;494;48.744;10.106;2022-12-29T01:21:03;9.80;;;3.63;;
1010;SDS011;494;48.744;10.106;2022-12-29T01:23:33;10.93;;;4.17;;
1010;SDS011;494;48.744;10.106;2022-12-29T01:26:09;10.17;;;3.93;;
1010;SDS011;494;48.744;10.106;2022-12-29T01:28:39;13.47;;;3.90;;
1010;SDS011;494;48.744;10.106;2022-12-29T01:31:08;9.07;;;3.97;;
1010;SDS011;494;48.744;10.106;2022-12-29T01:33:39;12.23;;;4.20;;
1010;SDS011;494;48.744;10.106;2022-12-29T01:36:10;9.63;;;3.77;;
1010;SDS011;494;48.744;10.106;2022-12-29T01:38:40;10.10;;;3.77;;
1010;SDS011;494;48.744;10.106;2022-12-29T01:41:13;9.90;;;4.30;;
1010;SDS011;494;48.744;10.106;2022-12-29T01:43:44;10.10;;;3.60;;
1010;SDS011;494;48.744;10.106;2022-12-29T01:46:19;9.90;;;4.07;;
1010;SDS011;494;48.744;10.106;2022-12-29T01:48:53;11.30;;;4.10;;
1010;SDS011;494;48.744;10.106;2022-12-29T01:51:30;11.80;;;4.63;;
1010;SDS011;494;48.744;10.106;2022-12-29T01:54:04;13.13;;;4.70;;
1010;SDS011;494;48.744;10.106;2022-12-29T01:56:39;10.53;;;4.60;;
1010;SDS011;494;48.744;10.106;2022-12-29T01:59:10;9.73;;;4.27;;
1010;SDS011;494;48.744;10.106;2022-12-29T02:01:43;11.60;;;5.00;;
1010;SDS011;494;48.744;10.106;2022-12-29T02:04:12;12.87;;;4.77;;
1010;SDS011;494;48.744;10.106;2022-12-29T02:06:45;11.17;;;4.83;;
1010;SDS011;494;48.744;10.106;2022-12-29T02:09:19;11.97;;;5.00;;
1010;SDS011;494;48.744;10.106;2022-12-29T02:11:51;10.60;;;4.20;;
1010;SDS011;494;48.744;10.106;2022-12-29T02:14:20;11.93;;;4.73;;
1010;SDS011;494;48.744;10.106;2022-12-29T02:16:56;11.70;;;4.30;;
1010;SDS011;494;48.744;10.106;2022-12-29T02:19:53;10.17;;;4.27;;
1010;SDS011;494;48.744;10.106;2022-12-29T02:23:00;9.90;;;4.40;;
1010;SDS011;494;48.744;10.106;2022-12-29T02:26:07;15.70;;;3.30;;
1010;SDS011;494;48.744;10.106;2022-12-29T02:29:11;10.20;;;3.70;;
1010;SDS011;494;48.744;10.106;2022-12-29T02:32:07;9.60;;;3.50;;
1010;SDS011;494;48.744;10.106;2022-12-29T02:34:46;8.80;;;3.20;;
1010;SDS011;494;48.744;10.106;2022-12-29T02:37:24;9.67;;;3.60;;
1010;SDS011;494;48.744;10.106;2022-12-29T02:40:03;10.63;;;3.73;;
1010;SDS011;494;48.744;10.106;2022-12-29T02:42:51;11.20;;;4.10;;
1010;SDS011;494;48.744;10.106;2022-12-29T02:45:30;9.50;;;3.20;;
1010;SDS011;494;48.744;10.106;2022-12-29T02:48:10;9.00;;;3.50;;
1010;SDS011;494;48.744;10.106;2022-12-29T02:50:48;9.47;;;3.40;;
1010;SDS011;494;48.744;10.106;2022-12-29T02:53:25;9.13;;;3.77;;
1010;SDS011;494;48.744;10.106;2022-12-29T02:56:13;9.80;;;3.80;;
1010;SDS011;494;48.744;10.106;2022-12-29T02:58:43;8.67;;;3.50;;
1010;SDS011;494;48.744;10.106;2022-12-29T03:01:23;9.43;;;3.50;;
1010;SDS011;494;48.744;10.106;2022-12-29T03:04:31;10.50;;;3.57;;
1010;SDS011;494;48.744;10.106;2022-12-29T03:07:15;8.87;;;3.50;;
1010;SDS011;494;48.744;10.106;2022-12-29T03:09:56;9.40;;;3.37;;
1010;SDS011;494;48.744;10.106;2022-12-29T03:12:37;10.27;;;3.40;;
1010;SDS011;494;48.744;10.106;2022-12-29T03:15:34;9.23;;;3.63;;
1010;SDS011;494;48.744;10.106;2022-12-29T03:18:34;8.97;;;3.20;;
1010;SDS011;494;48.744;10.106;2022-12-29T03:21:14;8.67;;;2.57;;
1010;SDS011;494;48.744;10.106;2022-12-29T03:24:13;9.50;;;3.00;;
1010;SDS011;494;48.744;10.106;2022-12-29T03:26:43;9.70;;;2.80;;
1010;SDS011;494;48.744;10.106;2022-12-29T03:29:15;9.10;;;2.90;;
1010;SDS011;494;48.744;10.106;2022-12-29T03:31:46;8.07;;;2.73;;
1010;SDS011;494;48.744;10.106;2022-12-29T03:34:17;7.23;;;2.63;;
1010;SDS011;494;48.744;10.106;2022-12-29T03:36:51;7.27;;;2.40;;
1010;SDS011;494;48.744;10.106;2022-12-29T03:39:24;10.70;;;2.70;;
1010;SDS011;494;48.744;10.106;2022-12-29T03:41:56;8.10;;;2.50;;
1010;SDS011;494;48.744;10.106;2022-12-29T03:44:34;8.40;;;2.83;;
1010;SDS011;494;48.744;10.106;2022-12-29T03:47:05;9.83;;;3.07;;
1010;SDS011;494;48.744;10.106;2022-12-29T03:49:35;8.50;;;2.77;;
1010;SDS011;494;48.744;10.106;2022-12-29T03:52:05;8.23;;;2.97;;
1010;SDS011;494;48.744;10.106;2022-12-29T03:54:34;12.20;;;3.63;;
1010;SDS011;494;48.744;10.106;2022-12-29T03:57:02;8.40;;;3.20;;
1010;SDS011;494;48.744;10.106;2022-12-29T03:59:31;8.70;;;2.90;;
1010;SDS011;494;48.744;10.106;2022-12-29T04:01:59;8.93;;;3.03;;
1010;SDS011;494;48.744;10.106;2022-12-29T04:04:28;9.77;;;3.10;;
1010;SDS011;494;48.744;10.106;2022-12-29T04:06:58;10.50;;;3.80;;
1010;SDS011;494;48.744;10.106;2022-12-29T04:09:28;10.17;;;3.53;;
1010;SDS011;494;48.744;10.106;2022-12-29T04:11:57;8.73;;;3.17;;
1010;SDS011;494;48.744;10.106;2022-12-29T04:14:26;9.90;;;3.50;;
1010;SDS011;494;48.744;10.106;2022-12-29T04:16:54;11.33;;;3.40;;
1010;SDS011;494;48.744;10.106;2022-12-29T04:19:23;8.20;;;2.90;;
1010;SDS011;494;48.744;10.106;2022-12-29T04:21:51;7.33;;;2.77;;
1010;SDS011;494;48.744;10.106;2022-12-29T04:24:20;9.27;;;3.03;;
1010;SDS011;494;48.744;10.106;2022-12-29T04:26:50;8.53;;;3.50;;
1010;SDS011;494;48.744;10.106;2022-12-29T04:29:18;13.13;;;3.17;;
1010;SDS011;494;48.744;10.106;2022-12-29T04:31:47;9.23;;;3.13;;
1010;SDS011;494;48.744;10.106;2022-12-29T04:34:15;9.13;;;3.40;;
1010;SDS011;494;48.744;10.106;2022-12-29T04:36:44;11.80;;;3.90;;
1010;SDS011;494;48.744;10.106;2022-12-29T04:39:12;11.93;;;4.60;;
1010;SDS011;494;48.744;10.106;2022-12-29T04:41:41;10.97;;;3.70;;
1010;SDS011;494;48.744;10.106;2022-12-29T04:44:11;11.80;;;3.70;;
1010;SDS011;494;48.744;10.106;2022-12-29T04:46:40;8.43;;;2.77;;
1010;SDS011;494;48.744;10.106;2022-12-29T04:49:08;8.30;;;3.03;;
1010;SDS011;494;48.744;10.106;2022-12-29T04:51:37;9.07;;;3.37;;
1010;SDS011;494;48.744;10.106;2022-12-29T04:54:05;11.37;;;3.70;;
1010;SDS011;494;48.744;10.106;2022-12-29T04:56:35;14.57;;;6.70;;
1010;SDS011;494;48.744;10.106;2022-12-29T04:59:04;12.70;;;5.33;;
1010;SDS011;494;48.744;10.106;2022-12-29T05:01:34;16.73;;;7.40;;
1010;SDS011;494;48.744;10.106;2022-12-29T05:04:03;11.50;;;4.63;;
1010;SDS011;494;48.744;10.106;2022-12-29T05:06:31;15.00;;;6.60;;
1010;SDS011;494;48.744;10.106;2022-12-29T05:09:00;11.13;;;4.73;;
1010;SDS011;494;48.744;10.106;2022-12-29T05:11:29;10.37;;;3.67;;
1010;SDS011;494;48.744;10.106;2022-12-29T05:13:57;9.17;;;3.83;;
1010;SDS011;494;48.744;10.106;2022-12-29T05:16:26;9.93;;;3.70;;
1010;SDS011;494;48.744;10.106;2022-12-29T05:18:56;9.50;;;3.27;;
1010;SDS011;494;48.744;10.106;2022-12-29T05:21:24;10.60;;;3.70;;
1010;SDS011;494;48.744;10.106;2022-12-29T05:23:53;10.10;;;3.30;;
1010;SDS011;494;48.744;10.106;2022-12-29T05:26:21;10.03;;;3.00;;
1010;SDS011;494;48.744;10.106;2022-12-29T05:28:50;10.97;;;3.33;;
1010;SDS011;494;48.744;10.106;2022-12-29T05:31:19;8.40;;;3.07;;
1010;SDS011;494;48.744;10.106;2022-12-29T05:33:47;10.40;;;3.80;;
1010;SDS011;494;48.744;10.106;2022-12-29T05:36:17;9.83;;;3.03;;
1010;SDS011;494;48.744;10.106;2022-12-29T05:38:46;10.30;;;2.70;;
1010;SDS011;494;48.744;10.106;2022-12-29T05:41:15;8.03;;;2.50;;
1010;SDS011;494;48.744;10.106;2022-12-29T05:43:43;7.77;;;2.50;;
1010;SDS011;494;48.744;10.106;2022-12-29T05:46:12;7.60;;;2.40;;
1010;SDS011;494;48.744;10.106;2022-12-29T05:48:41;7.37;;;2.20;;
1010;SDS011;494;48.744;10.106;2022-12-29T05:51:09;8.40;;;2.97;;
1010;SDS011;494;48.744;10.106;2022-12-29T05:53:39;8.03;;;2.63;;
1010;SDS011;494;48.744;10.106;2022-12-29T05:56:08;8.30;;;2.60;;
1010;SDS011;494;48.744;10.106;2022-12-29T05:58:36;9.37;;;2.17;;
1010;SDS011;494;48.744;10.106;2022-12-29T06:01:05;7.60;;;2.23;;
1010;SDS011;494;48.744;10.106;2022-12-29T06:03:33;10.73;;;2.50;;
1010;SDS011;494;48.744;10.106;2022-12-29T06:06:02;8.87;;;2.47;;
1010;SDS011;494;48.744;10.106;2022-12-29T06:08:31;9.37;;;3.20;;
1010;SDS011;494;48.744;10.106;2022-12-29T06:11:01;10.03;;;2.70;;
1010;SDS011;494;48.744;10.106;2022-12-29T06:13:30;8.23;;;2.70;;
1010;SDS011;494;48.744;10.106;2022-12-29T06:15:59;8.80;;;3.37;;
1010;SDS011;494;48.744;10.106;2022-12-29T06:18:28;9.70;;;3.33;;
1010;SDS011;494;48.744;10.106;2022-12-29T06:20:58;9.30;;;3.50;;
1010;SDS011;494;48.744;10.106;2022-12-29T06:23:28;10.27;;;3.60;;
1010;SDS011;494;48.744;10.106;2022-12-29T06:25:57;14.57;;;5.17;;
1010;SDS011;494;48.744;10.106;2022-12-29T06:28:27;14.37;;;7.77;;
1010;SDS011;494;48.744;10.106;2022-12-29T06:30:55;13.43;;;7.33;;
1010;SDS011;494;48.744;10.106;2022-12-29T06:33:24;11.77;;;5.30;;
1010;SDS011;494;48.744;10.106;2022-12-29T06:35:53;11.97;;;6.00;;
1010;SDS011;494;48.744;10.106;2022-12-29T06:38:21;13.40;;;5.47;;
1010;SDS011;494;48.744;10.106;2022-12-29T06:40:50;13.83;;;5.40;;
1010;SDS011;494;48.744;10.106;2022-12-29T06:43:18;11.10;;;3.67;;
1010;SDS011;494;48.744;10.106;2022-12-29T06:45:48;9.90;;;2.90;;
1010;SDS011;494;48.744;10.106;2022-12-29T06:48:17;8.27;;;2.57;;
1010;SDS011;494;48.744;10.106;2022-12-29T06:50:45;8.40;;;2.67;;
1010;SDS011;494;48.744;10.106;2022-12-29T06:53:14;8.93;;;3.17;;
1010;SDS011;494;48.744;10.106;2022-12-29T06:55:42;11.10;;;4.27;;
1010;SDS011;494;48.744;10.106;2022-12-29T06:58:11;10.00;;;3.07;;
1010;SDS011;494;48.744;10.106;2022-12-29T07:00:39;9.03;;;3.10;;
1010;SDS011;494;48.744;10.106;2022-12-29T07:03:09;8.90;;;3.20;;
1010;SDS011;494;48.744;10.106;2022-12-29T07:05:38;7.90;;;2.90;;
1010;SDS011;494;48.744;10.106;2022-12-29T07:08:06;10.50;;;3.50;;
1010;SDS011;494;48.744;10.106;2022-12-29T07:10:35;10.30;;;4.00;;
1010;SDS011;494;48.744;10.106;2022-12-29T07:13:03;10.43;;;3.87;;
1010;SDS011;494;48.744;10.106;2022-12-29T07:15:34;9.97;;;4.00;;
1010;SDS011;494;48.744;10.106;2022-12-29T07:18:03;12.03;;;4.00;;
1010;SDS011;494;48.744;10.106;2022-12-29T07:20:34;9.70;;;3.90;;
1010;SDS011;494;48.744;10.106;2022-12-29T07:23:02;9.00;;;3.20;;
1010;SDS011;494;48.744;10.106;2022-12-29T07:25:31;11.00;;;3.07;;
1010;SDS011;494;48.744;10.106;2022-12-29T07:28:01;11.53;;;3.10;;
1010;SDS011;494;48.744;10.106;2022-12-29T07:30:30;8.30;;;2.60;;
1010;SDS011;494;48.744;10.106;2022-12-29T07:32:59;10.37;;;3.70;;
1010;SDS011;494;48.744;10.106;2022-12-29T07:35:27;8.77;;;3.33;;
1010;SDS011;494;48.744;10.106;2022-12-29T07:37:57;8.00;;;2.80;;
1010;SDS011;494;48.744;10.106;2022-12-29T07:40:26;8.97;;;3.17;;
1010;SDS011;494;48.744;10.106;2022-12-29T07:42:54;9.30;;;3.20;;
1010;SDS011;494;48.744;10.106;2022-12-29T07:45:22;11.10;;;3.10;;
1010;SDS011;494;48.744;10.106;2022-12-29T07:47:51;9.07;;;3.53;;
1010;SDS011;494;48.744;10.106;2022-12-29T07:50:19;11.70;;;3.70;;
1010;SDS011;494;48.744;10.106;2022-12-29T07:52:48;12.20;;;4.57;;
1010;SDS011;494;48.744;10.106;2022-12-29T07:55:18;11.70;;;4.67;;
1010;SDS011;494;48.744;10.106;2022-12-29T07:57:46;10.53;;;4.43;;
1010;SDS011;494;48.744;10.106;2022-12-29T08:00:15;10.00;;;3.97;;
1010;SDS011;494;48.744;10.106;2022-12-29T08:02:44;9.10;;;3.40;;
1010;SDS011;494;48.744;10.106;2022-12-29T08:05:13;12.37;;;5.07;;
1010;SDS011;494;48.744;10.106;2022-12-29T08:07:42;9.07;;;3.43;;
1010;SDS011;494;48.744;10.106;2022-12-29T08:10:12;11.87;;;5.37;;
1010;SDS011;494;48.744;10.106;2022-12-29T08:12:43;11.53;;;4.53;;
1010;SDS011;494;48.744;10.106;2022-12-29T08:15:12;9.43;;;3.90;;
1010;SDS011;494;48.744;10.106;2022-12-29T08:17:41;9.53;;;2.60;;
1010;SDS011;494;48.744;10.106;2022-12-29T08:20:09;9.67;;;3.63;;
1010;SDS011;494;48.744;10.106;2022-12-29T08:22:38;11.10;;;4.40;;
1010;SDS011;494;48.744;10.106;2022-12-29T08:25:08;13.20;;;5.60;;
1010;SDS011;494;48.744;10.106;2022-12-29T08:27:36;14.70;;;5.23;;
1010;SDS011;494;48.744;10.106;2022-12-29T08:30:07;13.90;;;5.10;;
1010;SDS011;494;48.744;10.106;2022-12-29T08:32:37;12.13;;;4.40;;
1010;SDS011;494;48.744;10.106;2022-12-29T08:35:06;8.87;;;3.50;;
1010;SDS011;494;48.744;10.106;2022-12-29T08:37:35;10.10;;;4.50;;
1010;SDS011;494;48.744;10.106;2022-12-29T08:40:04;12.70;;;6.10;;
1010;SDS011;494;48.744;10.106;2022-12-29T08:42:34;13.00;;;6.20;;
1010;SDS011;494;48.744;10.106;2022-12-29T08:45:03;14.40;;;7.97;;
1010;SDS011;494;48.744;10.106;2022-12-29T08:47:34;10.50;;;4.70;;
1010;SDS011;494;48.744;10.106;2022-12-29T08:50:03;16.33;;;7.50;;
1010;SDS011;494;48.744;10.106;2022-12-29T08:52:32;21.73;;;7.53;;
1010;SDS011;494;48.744;10.106;2022-12-29T08:55:01;12.10;;;5.27;;
1010;SDS011;494;48.744;10.106;2022-12-29T08:57:30;12.67;;;6.47;;
1010;SDS011;494;48.744;10.106;2022-12-29T08:59:59;10.87;;;4.83;;
1010;SDS011;494;48.744;10.106;2022-12-29T09:02:27;12.67;;;5.30;;
1010;SDS011;494;48.744;10.106;2022-12-29T09:04:57;12.77;;;6.03;;
1010;SDS011;494;48.744;10.106;2022-12-29T09:07:26;9.87;;;4.23;;
1010;SDS011;494;48.744;10.106;2022-12-29T09:09:55;10.33;;;4.50;;
1010;SDS011;494;48.744;10.106;2022-12-29T09:12:26;12.57;;;4.83;;
1010;SDS011;494;48.744;10.106;2022-12-29T09:15:02;18.63;;;4.53;;
1010;SDS011;494;48.744;10.106;2022-12-29T09:17:32;12.10;;;5.07;;
1010;SDS011;494;48.744;10.106;2022-12-29T09:20:15;13.20;;;4.37;;
1010;SDS011;494;48.744;10.106;2022-12-29T09:22:46;10.80;;;4.70;;
1010;SDS011;494;48.744;10.106;2022-12-29T09:25:15;13.43;;;4.70;;
1010;SDS011;494;48.744;10.106;2022-12-29T09:27:44;11.20;;;4.10;;
1010;SDS011;494;48.744;10.106;2022-12-29T09:30:14;11.53;;;4.33;;
1010;SDS011;494;48.744;10.106;2022-12-29T09:32:42;11.60;;;4.10;;
1010;SDS011;494;48.744;10.106;2022-12-29T09:35:17;12.57;;;4.67;;
1010;SDS011;494;48.744;10.106;2022-12-29T09:37:45;11.70;;;4.70;;
1010;SDS011;494;48.744;10.106;2022-12-29T09:40:18;12.63;;;4.07;;
1010;SDS011;494;48.744;10.106;2022-12-29T09:43:02;11.67;;;3.80;;
1010;SDS011;494;48.744;10.106;2022-12-29T09:45:53;10.43;;;3.90;;
1010;SDS011;494;48.744;10.106;2022-12-29T09:48:32;11.83;;;3.77;;
1010;SDS011;494;48.744;10.106;2022-12-29T09:51:10;11.23;;;4.60;;
1010;SDS011;494;48.744;10.106;2022-12-29T09:53:44;10.93;;;3.90;;
1010;SDS011;494;48.744;10.106;2022-12-29T09:56:19;10.93;;;3.83;;
1010;SDS011;494;48.744;10.106;2022-12-29T09:58:51;10.23;;;4.00;;
1010;SDS011;494;48.744;10.106;2022-12-29T10:01:29;11.30;;;4.60;;
1010;SDS011;494;48.744;10.106;2022-12-29T10:04:04;15.23;;;5.20;;
1010;SDS011;494;48.744;10.106;2022-12-29T10:06:37;11.50;;;4.20;;
1010;SDS011;494;48.744;10.106;2022-12-29T10:09:36;14.00;;;4.90;;
1010;SDS011;494;48.744;10.106;2022-12-29T10:12:21;11.20;;;4.17;;
1010;SDS011;494;48.744;10.106;2022-12-29T10:15:00;12.70;;;4.27;;
1010;SDS011;494;48.744;10.106;2022-12-29T10:17:42;11.13;;;4.00;;
1010;SDS011;494;48.744;10.106;2022-12-29T10:20:25;12.43;;;4.33;;
1010;SDS011;494;48.744;10.106;2022-12-29T10:23:09;10.60;;;3.93;;
1010;SDS011;494;48.744;10.106;2022-12-29T10:25:52;11.23;;;3.77;;
1010;SDS011;494;48.744;10.106;2022-12-29T10:28:24;11.53;;;3.97;;
1010;SDS011;494;48.744;10.106;2022-12-29T10:31:08;12.00;;;4.20;;
1010;SDS011;494;48.744;10.106;2022-12-29T10:33:48;13.10;;;3.70;;
1010;SDS011;494;48.744;10.106;2022-12-29T10:36:23;14.57;;;4.50;;
1010;SDS011;494;48.744;10.106;2022-12-29T10:39:04;13.10;;;4.27;;
1010;SDS011;494;48.744;10.106;2022-12-29T10:41:44;12.50;;;4.00;;
1010;SDS011;494;48.744;10.106;2022-12-29T10:44:19;13.90;;;5.50;;
1010;SDS011;494;48.744;10.106;2022-12-29T10:47:02;12.40;;;4.37;;
1010;SDS011;494;48.744;10.106;2022-12-29T10:49:39;10.33;;;3.53;;
1010;SDS011;494;48.744;10.106;2022-12-29T10:52:10;9.73;;;3.70;;
1010;SDS011;494;48.744;10.106;2022-12-29T10:54:45;9.20;;;3.27;;
1010;SDS011;494;48.744;10.106;2022-12-29T10:57:22;10.80;;;4.27;;
1010;SDS011;494;48.744;10.106;2022-12-29T10:59:55;11.83;;;3.73;;
1010;SDS011;494;48.744;10.106;2022-12-29T11:02:36;11.37;;;3.40;;
1010;SDS011;494;48.744;10.106;2022-12-29T11:05:44;11.70;;;3.43;;
1010;SDS011;494;48.744;10.106;2022-12-29T11:08:20;12.00;;;3.70;;
1010;SDS011;494;48.744;10.106;2022-12-29T11:10:59;11.20;;;3.83;;
1010;SDS011;494;48.744;10.106;2022-12-29T11:13:31;10.57;;;3.47;;
1010;SDS011;494;48.744;10.106;2022-12-29T11:16:05;10.93;;;3.83;;
1010;SDS011;494;48.744;10.106;2022-12-29T11:18:34;12.40;;;5.03;;
1010;SDS011;494;48.744;10.106;2022-12-29T11:21:06;10.30;;;3.80;;
1010;SDS011;494;48.744;10.106;2022-12-29T11:23:57;10.43;;;3.80;;
1010;SDS011;494;48.744;10.106;2022-12-29T11:26:30;12.30;;;4.37;;
1010;SDS011;494;48.744;10.106;2022-12-29T11:31:54;10.03;;;3.60;;
1010;SDS011;494;48.744;10.106;2022-12-29T11:34:26;13.20;;;4.40;;
1010;SDS011;494;48.744;10.106;2022-12-29T11:37:00;13.97;;;3.97;;
1010;SDS011;494;48.744;10.106;2022-12-29T11:39:34;11.70;;;4.33;;
1010;SDS011;494;48.744;10.106;2022-12-29T11:42:14;12.10;;;4.47;;
1010;SDS011;494;48.744;10.106;2022-12-29T11:44:45;10.73;;;3.60;;
1010;SDS011;494;48.744;10.106;2022-12-29T11:47:24;12.33;;;4.20;;
1010;SDS011;494;48.744;10.106;2022-12-29T11:49:59;15.23;;;4.47;;
1010;SDS011;494;48.744;10.106;2022-12-29T11:52:31;14.00;;;4.80;;
1010;SDS011;494;48.744;10.106;2022-12-29T11:55:12;14.53;;;5.17;;
1010;SDS011;494;48.744;10.106;2022-12-29T11:57:49;15.50;;;5.17;;
1010;SDS011;494;48.744;10.106;2022-12-29T12:00:22;14.77;;;5.10;;
1010;SDS011;494;48.744;10.106;2022-12-29T12:02:53;14.80;;;6.00;;
1010;SDS011;494;48.744;10.106;2022-12-29T12:05:30;13.70;;;6.00;;
1010;SDS011;494;48.744;10.106;2022-12-29T12:08:09;16.57;;;5.73;;
1010;SDS011;494;48.744;10.106;2022-12-29T12:10:47;15.43;;;5.63;;
1010;SDS011;494;48.744;10.106;2022-12-29T12:13:25;11.40;;;4.87;;
1010;SDS011;494;48.744;10.106;2022-12-29T12:16:02;14.97;;;4.60;;
1010;SDS011;494;48.744;10.106;2022-12-29T12:18:38;13.50;;;4.83;;
1010;SDS011;494;48.744;10.106;2022-12-29T12:21:20;17.07;;;6.57;;
1010;SDS011;494;48.744;10.106;2022-12-29T12:23:59;19.53;;;7.73;;
1010;SDS011;494;48.744;10.106;2022-12-29T12:26:48;17.10;;;7.60;;
1010;SDS011;494;48.744;10.106;2022-12-29T12:29:33;21.20;;;7.47;;
1010;SDS011;494;48.744;10.106;2022-12-29T12:32:12;29.93;;;15.53;;
1010;SDS011;494;48.744;10.106;2022-12-29T12:34:46;15.20;;;7.07;;
1010;SDS011;494;48.744;10.106;2022-12-29T12:37:30;16.87;;;7.60;;
1010;SDS011;494;48.744;10.106;2022-12-29T12:40:28;18.37;;;10.10;;
1010;SDS011;494;48.744;10.106;2022-12-29T12:43:23;12.77;;;6.57;;
1010;SDS011;494;48.744;10.106;2022-12-29T12:46:28;14.27;;;6.10;;
1010;SDS011;494;48.744;10.106;2022-12-29T12:49:30;12.27;;;5.00;;
1010;SDS011;494;48.744;10.106;2022-12-29T12:52:37;11.80;;;4.33;;
1010;SDS011;494;48.744;10.106;2022-12-29T12:55:43;15.53;;;4.40;;
1010;SDS011;494;48.744;10.106;2022-12-29T12:58:43;13.80;;;4.60;;
1010;SDS011;494;48.744;10.106;2022-12-29T13:01:29;14.40;;;4.87;;
1010;SDS011;494;48.744;10.106;2022-12-29T13:04:15;11.40;;;4.67;;
1010;SDS011;494;48.744;10.106;2022-12-29T13:07:22;13.53;;;5.20;;
1010;SDS011;494;48.744;10.106;2022-12-29T13:10:23;15.47;;;4.30;;
1010;SDS011;494;48.744;10.106;2022-12-29T13:16:23;18.03;;;5.97;;
1010;SDS011;494;48.744;10.106;2022-12-29T13:19:04;12.70;;;5.10;;
1010;SDS011;494;48.744;10.106;2022-12-29T13:24:36;13.40;;;4.30;;
1010;SDS011;494;48.744;10.106;2022-12-29T13:27:23;14.33;;;5.90;;
1010;SDS011;494;48.744;10.106;2022-12-29T13:30:04;13.60;;;5.80;;
1010;SDS011;494;48.744;10.106;2022-12-29T13:32:44;16.17;;;6.10;;
1010;SDS011;494;48.744;10.106;2022-12-29T13:35:32;15.73;;;7.40;;
1010;SDS011;494;48.744;10.106;2022-12-29T13:38:21;18.10;;;8.63;;
1010;SDS011;494;48.744;10.106;2022-12-29T13:40:59;27.53;;;7.47;;
1010;SDS011;494;48.744;10.106;2022-12-29T13:43:32;20.47;;;8.20;;
1010;SDS011;494;48.744;10.106;2022-12-29T13:46:07;19.07;;;8.10;;
1010;SDS011;494;48.744;10.106;2022-12-29T13:48:45;23.70;;;10.57;;
1010;SDS011;494;48.744;10.106;2022-12-29T13:51:18;17.40;;;8.00;;
1010;SDS011;494;48.744;10.106;2022-12-29T13:54:05;23.07;;;10.93;;
1010;SDS011;494;48.744;10.106;2022-12-29T13:56:47;19.10;;;9.60;;
1010;SDS011;494;48.744;10.106;2022-12-29T13:59:24;18.20;;;9.60;;
1010;SDS011;494;48.744;10.106;2022-12-29T14:02:10;18.33;;;9.90;;
1010;SDS011;494;48.744;10.106;2022-12-29T14:04:59;16.13;;;7.40;;
1010;SDS011;494;48.744;10.106;2022-12-29T14:07:35;17.20;;;8.37;;
1010;SDS011;494;48.744;10.106;2022-12-29T14:10:06;14.00;;;6.60;;
1010;SDS011;494;48.744;10.106;2022-12-29T14:12:59;28.27;;;13.27;;
1010;SDS011;494;48.744;10.106;2022-12-29T14:15:32;20.87;;;11.17;;
1010;SDS011;494;48.744;10.106;2022-12-29T14:18:11;21.60;;;10.80;;
1010;SDS011;494;48.744;10.106;2022-12-29T14:20:51;25.03;;;13.57;;
1010;SDS011;494;48.744;10.106;2022-12-29T14:23:28;28.60;;;14.90;;
1010;SDS011;494;48.744;10.106;2022-12-29T14:26:10;38.77;;;20.73;;
1010;SDS011;494;48.744;10.106;2022-12-29T14:29:15;23.47;;;12.20;;
1010;SDS011;494;48.744;10.106;2022-12-29T14:38:19;17.57;;;8.53;;
1010;SDS011;494;48.744;10.106;2022-12-29T14:44:00;15.80;;;7.20;;
1010;SDS011;494;48.744;10.106;2022-12-29T14:46:48;14.93;;;6.40;;
1010;SDS011;494;48.744;10.106;2022-12-29T14:49:25;18.60;;;7.13;;
1010;SDS011;494;48.744;10.106;2022-12-29T14:54:53;13.80;;;6.80;;
1010;SDS011;494;48.744;10.106;2022-12-29T14:57:36;24.37;;;12.40;;
1010;SDS011;494;48.744;10.106;2022-12-29T15:00:14;26.40;;;9.77;;
1010;SDS011;494;48.744;10.106;2022-12-29T15:02:48;16.17;;;7.47;;
1010;SDS011;494;48.744;10.106;2022-12-29T15:05:30;13.40;;;5.37;;
1010;SDS011;494;48.744;10.106;2022-12-29T15:08:07;17.77;;;7.13;;
1010;SDS011;494;48.744;10.106;2022-12-29T15:10:38;19.23;;;6.97;;
1010;SDS011;494;48.744;10.106;2022-12-29T15:13:17;19.47;;;5.93;;
1010;SDS011;494;48.744;10.106;2022-12-29T15:15:52;19.30;;;6.50;;
1010;SDS011;494;48.744;10.106;2022-12-29T15:18:22;13.83;;;5.70;;
1010;SDS011;494;48.744;10.106;2022-12-29T15:20:54;15.47;;;6.10;;
1010;SDS011;494;48.744;10.106;2022-12-29T15:23:29;13.93;;;5.20;;
1010;SDS011;494;48.744;10.106;2022-12-29T15:26:01;12.07;;;4.40;;
1010;SDS011;494;48.744;10.106;2022-12-29T15:28:37;13.50;;;5.03;;
1010;SDS011;494;48.744;10.106;2022-12-29T15:31:11;18.13;;;5.60;;
1010;SDS011;494;48.744;10.106;2022-12-29T15:33:43;21.33;;;6.10;;
1010;SDS011;494;48.744;10.106;2022-12-29T15:36:17;21.33;;;11.47;;
1010;SDS011;494;48.744;10.106;2022-12-29T15:38:51;21.97;;;8.80;;
1010;SDS011;494;48.744;10.106;2022-12-29T15:41:25;22.27;;;11.33;;
1010;SDS011;494;48.744;10.106;2022-12-29T15:44:25;26.63;;;12.93;;
1010;SDS011;494;48.744;10.106;2022-12-29T15:47:01;22.03;;;9.83;;
1010;SDS011;494;48.744;10.106;2022-12-29T15:49:31;13.40;;;5.47;;
1010;SDS011;494;48.744;10.106;2022-12-29T15:52:00;12.70;;;5.40;;
1010;SDS011;494;48.744;10.106;2022-12-29T15:54:36;17.13;;;4.43;;
1010;SDS011;494;48.744;10.106;2022-12-29T15:57:11;15.60;;;4.67;;
1010;SDS011;494;48.744;10.106;2022-12-29T15:59:50;13.10;;;4.50;;
1010;SDS011;494;48.744;10.106;2022-12-29T16:02:20;12.23;;;4.20;;
1010;SDS011;494;48.744;10.106;2022-12-29T16:04:51;13.10;;;4.47;;
1010;SDS011;494;48.744;10.106;2022-12-29T16:07:40;11.10;;;4.00;;
1010;SDS011;494;48.744;10.106;2022-12-29T16:10:25;11.00;;;3.90;;
1010;SDS011;494;48.744;10.106;2022-12-29T16:13:04;12.60;;;5.20;;
1010;SDS011;494;48.744;10.106;2022-12-29T16:15:45;11.73;;;4.23;;